Portada
METAR-TAF:

METAR-TAF

Aeroports :

Àqaba, Jordània

latitud: 29-38N, longitud: 035-01E, altitud: 53 m

Observació

L'informe es va fer fa 19 minuts, a les 22:00 UTC
Vent 6 kt del Nord
Temperatura 15°C
Humitat 67%
Pressió 1017 hPa
Visibilitat 10 km o més
sense núvols per sota de 1500 mi sense presència de cumulonimbus.

METAR: OJAQ 272200Z 36006KT CAVOK 15/09 Q1017 NOSIG

Hora: 00:19 (22:19 UTC)

Pronòstic

L'informe es va fer fa 5 hores i 19 minuts, a les 17:00 UTC
Pronòstic vàlid del 27 a les 18 UTC al 28 a les 24 UTC
Vent 10 kt del Nord
Visibilitat: 7000 m

TAF: OJAQ 271700Z 2718/2824 35010KT 7000 NSC

Observacions i pronòstics meteorològics de més de 4000 aeroports (METAR i TAF).

Les estacions disponibles són els punts grocs i vermells al mapa.

Posi el ratolí al punt desitjat per veure el nom de l'estació.

Feu clic per veure les observacions i els pronòstics meteorològics.

Per canviar el mapa: feu clic els botons verds amb una creu de color negre per apropar; al botó verd amb un guió per allunyar la imatge; o en les fletxes verdes per a mapes adjacents.


METAR-TAF: